Vremea acum in Aiud - Romania

Vrei sa afli care e starea vremii acum in Alba - Romania? Dorim sa iti furnizam starea vremii pentru Alba - Romania. Starea vremii Alba - Romania pentru astazi.

Vremea acum in Aiud

Temperatura: -1 °C

Se simte ca: -4.2 °C
Innorat: 100 %
Precipitatii: 95 %
Presiune atmosferica: 1008 hPa
Umiditate: 93%
Vizibilitate: 10 km
Vantul bate din WNW cu 9 km/h

Evolutia vremii in Aiud pe ore

Ora: 09:00
Burniță uşoară pe porțiuni
Temperatura: 1.8°C
Sansa de precipitatii: 95%
Ora Descriere Temp Se simte Precipitatii Umiditate Vant
00:00Parțial noros-2.2°-5.1°0%77%S 7.6 KM/H
01:00Parțial noros-2.1°-4.4°0%74%S 6.1 KM/H
02:00Parțial noros-2.1°-3.8°0%71%SSE 4.7 KM/H
03:00Parțial noros-1.6°-3.5°0%68%SSE 5.4 KM/H
04:00Parțial noros-1.1°-3.3°0%65%S 6.1 KM/H
05:00Parțial noros-0.6°-3°0%62%S 6.8 KM/H
06:00Ploi uşoare-3°32%64%SSW 9.7 KM/H
07:00Parțial noros0.6°-3°64%67%SW 12.6 KM/H
08:00Ploi uşoare1.2°-3°96%70%SW 15.5 KM/H
09:00Burniță uşoară pe porțiuni1.8°-2.4°95%71%WSW 16.9 KM/H
10:00Ploi uşoare2.5°-1.9°95%72%WSW 18 KM/H
11:00Burniță uşoară pe porțiuni3.1°-1.3°95%74%WSW 19.4 KM/H
12:00Burniță uşoară pe porțiuni3.9°0.2°95%73%WSW 16.6 KM/H
13:00Burniță uşoară pe porțiuni4.7°1.6°94%73%WSW 13.7 KM/H
14:00Burniță uşoară pe porțiuni5.5°3.1°94%73%WSW 10.8 KM/H
15:00Burniță uşoară4.7°2.4°94%77%SW 9.7 KM/H
16:00Burniță uşoară pe porțiuni3.9°1.6°93%81%SSW 9 KM/H
17:00Burniță uşoară3.1°0.9°93%86%SSW 7.9 KM/H
18:00Ploi uşoare2.9°0.6°92%86%SSW 7.9 KM/H
19:00Burniță uşoară2.6°0.4°92%87%SSW 7.9 KM/H
20:00Ploi uşoare2.4°0.1°92%87%SSW 7.9 KM/H
21:00Burniță uşoară2.1°-0.2°91%88%SW 7.6 KM/H
22:00Ploi uşoare1.8°-0.4°91%88%SW 7.6 KM/H
23:00Burniță uşoară1.5°-0.7°91%88%SW 7.2 KM/H